Andrews Air Force Base, Maryland
Current Conditions -  °F | °C
As of 4:58 AM on Thursday 23 Oct 2014 (Local Time) from KADW Reporting Station
Overcast Overcast  
Wind Chill: 11°   Ceiling: 3100
Heat Index: 11°   Visibility: 10mi
Dew Point:   Wind: 17mph
Humidity: 70%   Direction: 310°NW
Pressure: 29.87"   Gusts: NA
Location:  38.8062°N, 76.8756°W
Report Text: KADW 230858Z AUTO 31015KT 10SM OVC031 11/06 A2987 RMK AO2 SLP122 T01110059 55003 $
Loading
Personal Weather Stations






























Interactive Weather Map
Tropical Storm Tracking
New forecast layout! Learn more

10-Day Weather Forecast

Advertisements
Track Severe Weather on mobile